Time;durP1;ratioP1;P1;durP2;ratioP2;P2;SDS_P1;SDS_P2;PMS_P1;PMS_P2;Temp;Humidity;BMP_temperature;BMP_pressure;BME280_temperature;BME280_humidity;BME280_pressure;Samples;Min_cycle;Max_cycle;Signal;HPM_P1;HPM_P2
2022/12/14 00:00:26;;;;;;;32.33;12.48;;;;;;;-3.69;100.00;100547.63;5019195;28;20033;-78
2022/12/14 00:02:51;;;;;;;30.40;11.55;;;;;;;-3.71;100.00;100556.84;5015765;28;20080;-78
2022/12/14 00:05:18;;;;;;;32.17;11.70;;;;;;;-3.71;100.00;100554.31;5027461;28;20048;-78
2022/12/14 00:07:44;;;;;;;28.52;11.65;;;;;;;-3.70;100.00;100550.09;5029180;28;20451;-78
2022/12/14 00:10:10;;;;;;;27.65;11.55;;;;;;;-3.71;100.00;100543.31;5030024;28;20017;-78
2022/12/14 00:12:35;;;;;;;30.30;12.10;;;;;;;-3.71;100.00;100545.84;5012184;28;20403;-78
2022/12/14 00:15:01;;;;;;;32.83;11.88;;;;;;;-3.74;100.00;100538.16;5022450;28;20100;-78
2022/12/14 00:17:27;;;;;;;27.42;10.85;;;;;;;-3.76;100.00;100522.06;5025068;28;20104;-78
2022/12/14 00:19:52;;;;;;;31.40;12.02;;;;;;;-3.77;100.00;100516.16;5025293;28;20549;-74
2022/12/14 00:22:17;;;;;;;31.67;11.93;;;;;;;-3.78;100.00;100518.63;5020929;28;20507;-74
2022/12/14 00:24:43;;;;;;;32.60;12.20;;;;;;;-3.78;100.00;100514.44;5029998;28;20026;-74
2022/12/14 00:27:08;;;;;;;28.30;11.75;;;;;;;-3.78;100.00;100521.16;5024762;28;20025;-74
2022/12/14 00:29:33;;;;;;;32.38;12.68;;;;;;;-3.79;100.00;100521.97;5019299;28;20041;-74
2022/12/14 00:31:59;;;;;;;30.17;12.00;;;;;;;-3.81;100.00;100521.91;5016060;28;20037;-74
2022/12/14 00:34:24;;;;;;;31.77;11.48;;;;;;;-3.80;100.00;100517.72;5008169;28;20056;-74
2022/12/14 00:36:50;;;;;;;35.10;11.40;;;;;;;-3.80;100.00;100522.78;5028596;28;20052;-73
2022/12/14 00:39:15;;;;;;;34.80;11.75;;;;;;;-3.82;100.00;100527.78;5029698;28;20075;-73
2022/12/14 00:41:40;;;;;;;27.27;11.23;;;;;;;-3.84;100.00;100519.31;5020104;28;20507;-74
2022/12/14 00:44:06;;;;;;;33.03;11.65;;;;;;;-3.85;100.00;100522.66;5004441;28;20083;-74
2022/12/14 00:46:31;;;;;;;30.30;11.55;;;;;;;-3.88;100.00;100512.44;5009061;28;20029;-73
2022/12/14 00:48:56;;;;;;;31.38;11.75;;;;;;;-3.92;100.00;100505.56;5013428;28;20069;-73
2022/12/14 00:51:22;;;;;;;30.17;11.95;;;;;;;-3.93;100.00;100508.06;5011533;28;20018;-74
2022/12/14 00:53:47;;;;;;;34.40;12.40;;;;;;;-3.97;100.00;100501.22;5013167;28;20025;-74
2022/12/14 00:56:12;;;;;;;32.78;11.90;;;;;;;-4.00;100.00;100491.84;5011671;28;20022;-74
2022/12/14 00:58:38;;;;;;;31.55;12.30;;;;;;;-4.06;100.00;100479.88;5016582;28;20037;-74
2022/12/14 01:01:06;;;;;;;30.55;12.23;;;;;;;-4.07;100.00;100480.69;5024015;28;20049;-73
2022/12/14 01:03:32;;;;;;;30.17;11.63;;;;;;;-4.13;100.00;100472.06;5018818;28;20468;-74
2022/12/14 01:05:58;;;;;;;32.45;11.48;;;;;;;-4.10;100.00;100474.69;5015154;28;20586;-74
2022/12/14 01:08:24;;;;;;;25.38;11.75;;;;;;;-4.11;100.00;100470.44;5025982;28;20077;-74
2022/12/14 01:10:50;;;;;;;29.42;11.63;;;;;;;-4.14;100.00;100465.28;5014625;28;20030;-73
2022/12/14 01:13:16;;;;;;;35.28;12.13;;;;;;;-4.15;100.00;100466.94;5025320;28;20048;-73
2022/12/14 01:15:41;;;;;;;33.20;12.15;;;;;;;-4.14;100.00;100470.34;5032720;28;20407;-73
2022/12/14 01:18:07;;;;;;;33.47;12.25;;;;;;;-4.17;100.00;100455.94;5030066;28;20060;-73
2022/12/14 01:20:32;;;;;;;30.65;12.15;;;;;;;-4.17;100.00;100458.47;5029517;28;20076;-73
2022/12/14 01:22:57;;;;;;;24.83;11.25;;;;;;;-4.15;100.00;100454.28;5027820;28;20080;-74
2022/12/14 01:25:23;;;;;;;30.50;11.93;;;;;;;-4.15;100.00;100461.88;5021170;28;20057;-73
2022/12/14 01:27:49;;;;;;;26.98;11.10;;;;;;;-4.13;100.00;100454.34;5011822;28;20251;-74
2022/12/14 01:30:15;;;;;;;28.88;11.38;;;;;;;-4.14;100.00;100447.56;5012965;28;20026;-74
2022/12/14 01:32:40;;;;;;;28.05;11.13;;;;;;;-4.15;100.00;100450.91;5013051;28;20025;-74
2022/12/14 01:35:06;;;;;;;27.95;11.68;;;;;;;-4.12;100.00;100449.34;5022466;28;20021;-74
2022/12/14 01:37:31;;;;;;;35.22;12.20;;;;;;;-4.11;100.00;100452.72;5017186;28;20144;-74
2022/12/14 01:39:57;;;;;;;32.88;11.82;;;;;;;-4.15;100.00;100444.16;5032903;28;20017;-73
2022/12/14 01:42:22;;;;;;;32.45;12.13;;;;;;;-4.12;100.00;100453.53;5023649;28;20041;-73
2022/12/14 01:44:56;;;;;;;28.58;11.63;;;;;;;-4.12;100.00;100458.59;5019074;28;20136;-73
2022/12/14 01:47:31;;;;;;;30.80;12.23;;;;;;;-4.12;100.00;100456.94;5019350;28;20044;-73
2022/12/14 01:50:06;;;;;;;31.02;11.63;;;;;;;-4.14;100.00;100453.47;5017249;28;20038;-74
2022/12/14 01:52:45;;;;;;;30.45;11.07;;;;;;;-4.14;100.00;100456.00;5030023;28;20196;-73
2022/12/14 01:55:17;;;;;;;31.23;11.40;;;;;;;-4.16;100.00;100452.56;5014326;28;20033;-74
2022/12/14 01:57:45;;;;;;;29.65;11.80;;;;;;;-4.16;100.00;100444.97;5020287;28;20048;-74
2022/12/14 02:00:15;;;;;;;29.45;11.45;;;;;;;-4.16;100.00;100444.16;5012814;28;20029;-73
2022/12/14 02:02:46;;;;;;;30.40;11.68;;;;;;;-4.20;100.00;100445.72;5026459;28;20120;-74
2022/12/14 02:05:13;;;;;;;28.30;10.63;;;;;;;-4.23;100.00;100443.09;5024998;28;20033;-73
2022/12/14 02:07:41;;;;;;;29.10;11.93;;;;;;;-4.17;100.00;100450.88;5016442;28;20050;-73
2022/12/14 02:10:08;;;;;;;27.95;11.02;;;;;;;-4.16;100.00;100441.63;5011432;28;20397;-74
2022/12/14 02:12:48;;;;;;;31.58;11.32;;;;;;;-4.18;100.00;100440.72;5024189;28;20043;-74
2022/12/14 02:15:13;;;;;;;27.45;11.15;;;;;;;-4.19;100.00;100433.94;5029082;28;20036;-74
2022/12/14 02:17:42;;;;;;;26.80;10.43;;;;;;;-4.17;100.00;100433.16;5020100;28;20029;-74
2022/12/14 02:20:09;;;;;;;29.58;11.55;;;;;;;-4.19;100.00;100421.28;5031942;28;20032;-78
2022/12/14 02:22:46;;;;;;;25.40;10.23;;;;;;;-4.18;100.00;100423.84;5010818;28;20265;-78
2022/12/14 02:25:31;;;;;;;28.75;11.43;;;;;;;-4.17;100.00;100425.59;5012653;28;20076;-78
2022/12/14 02:28:24;;;;;;;28.92;10.60;;;;;;;-4.16;100.00;100422.22;5012142;28;20064;-78
2022/12/14 02:31:01;;;;;;;29.70;11.85;;;;;;;-4.14;100.00;100420.59;5006983;28;20060;-78
2022/12/14 02:33:37;;;;;;;29.50;11.00;;;;;;;-4.15;100.00;100418.00;5017634;28;20026;-78
2022/12/14 02:36:23;;;;;;;26.88;10.68;;;;;;;-4.14;100.00;100422.25;5008088;28;20025;-78
2022/12/14 02:39:12;;;;;;;30.00;10.43;;;;;;;-4.14;100.00;100409.59;5030074;28;20026;-78
2022/12/14 02:41:50;;;;;;;28.00;10.88;;;;;;;-4.12;100.00;100411.38;5016435;28;20022;-78
2022/12/14 02:44:33;;;;;;;26.58;10.35;;;;;;;-4.15;100.00;100405.34;5016091;28;20499;-78
2022/12/14 02:47:10;;;;;;;26.25;9.93;;;;;;;-4.16;100.00;100414.63;5018633;28;20030;-78
2022/12/14 02:49:35;;;;;;;25.00;10.18;;;;;;;-4.18;100.00;100402.75;5008697;28;20065;-78
2022/12/14 02:52:06;;;;;;;25.40;9.73;;;;;;;-4.19;100.00;100409.50;5017217;28;20021;-78
2022/12/14 02:54:41;;;;;;;25.70;10.70;;;;;;;-4.20;100.00;100404.38;5017263;28;20030;-78
2022/12/14 02:57:22;;;;;;;28.27;11.00;;;;;;;-4.22;100.00;100411.91;5016652;28;20022;-78
2022/12/14 02:59:52;;;;;;;30.70;11.07;;;;;;;-4.25;100.00;100408.47;5026074;28;20559;-78
2022/12/14 03:02:18;;;;;;;26.80;10.52;;;;;;;-4.24;100.00;100413.56;5009182;28;20503;-78
2022/12/14 03:04:47;;;;;;;28.10;11.00;;;;;;;-4.23;100.00;100411.91;5017334;28;20316;-78
2022/12/14 03:07:25;;;;;;;28.88;11.05;;;;;;;-4.22;100.00;100414.44;5022436;28;20027;-78
2022/12/14 03:09:51;;;;;;;26.48;10.35;;;;;;;-4.23;100.00;100405.13;5009637;28;20037;-78
2022/12/14 03:12:18;;;;;;;27.42;10.73;;;;;;;-4.21;100.00;100401.00;5031207;28;20079;-78
2022/12/14 03:14:53;;;;;;;25.52;10.57;;;;;;;-4.16;100.00;100398.59;5016705;28;20029;-78
2022/12/14 03:17:24;;;;;;;30.98;11.07;;;;;;;-4.16;100.00;100401.97;5017511;28;20404;-78
2022/12/14 03:19:55;;;;;;;25.77;10.70;;;;;;;-4.12;100.00;100401.25;5018666;28;20112;-78
2022/12/14 03:22:31;;;;;;;26.95;10.30;;;;;;;-4.14;100.00;100395.28;5028546;28;20120;-78
2022/12/14 03:25:01;;;;;;;26.38;10.20;;;;;;;-4.10;100.00;100404.69;5021697;28;20033;-78
2022/12/14 03:27:34;;;;;;;26.50;10.73;;;;;;;-4.11;100.00;100394.53;5018293;28;20030;-78
2022/12/14 03:30:12;;;;;;;26.52;10.70;;;;;;;-4.08;100.00;100399.66;5014912;28;20041;-78
2022/12/14 03:32:48;;;;;;;25.63;10.45;;;;;;;-4.09;100.00;100392.88;5030732;28;20021;-79
2022/12/14 03:35:22;;;;;;;29.55;11.10;;;;;;;-4.08;100.00;100387.00;5026148;28;20033;-78
2022/12/14 03:38:01;;;;;;;24.90;10.25;;;;;;;-4.09;100.00;100378.56;5017595;28;20022;-78
2022/12/14 03:40:44;;;;;;;23.55;10.20;;;;;;;-4.09;100.00;100370.97;5013083;28;20449;-78
2022/12/14 03:43:30;;;;;;;24.90;10.43;;;;;;;-4.07;100.00;100373.53;5005623;28;20448;-78
2022/12/14 03:46:11;;;;;;;27.27;10.55;;;;;;;-4.10;100.00;100369.28;5021617;28;20029;-78
2022/12/14 03:48:41;;;;;;;27.90;10.50;;;;;;;-4.09;100.00;100370.09;5011446;28;20054;-78
2022/12/14 03:51:19;;;;;;;24.92;10.32;;;;;;;-4.06;100.00;100365.13;5017064;28;20037;-78
2022/12/14 03:53:48;;;;;;;24.08;9.93;;;;;;;-4.07;100.00;100359.22;5028778;28;20025;-78
2022/12/14 03:56:20;;;;;;;27.25;10.65;;;;;;;-4.07;100.00;100359.22;5018231;28;20030;-78
2022/12/14 03:59:07;;;;;;;25.85;10.68;;;;;;;-4.05;100.00;100354.19;5010833;28;20033;-78
2022/12/14 04:01:38;;;;;;;32.58;11.32;;;;;;;-4.07;100.00;100348.22;5007780;28;20042;-78
2022/12/14 04:04:29;;;;;;;26.75;10.30;;;;;;;-4.05;100.00;100347.47;5018066;28;20041;-78
2022/12/14 04:07:07;;;;;;;23.90;9.60;;;;;;;-4.06;100.00;100349.94;5009951;28;20269;-78
2022/12/14 04:09:51;;;;;;;27.25;10.50;;;;;;;-4.06;100.00;100345.75;5014593;28;20041;-78
2022/12/14 04:21:24;;;;;;;29.33;10.48;;;;;;;-4.04;100.00;100334.00;5010783;28;20072;-78
2022/12/14 04:26:48;;;;;;;28.98;11.43;;;;;;;-4.01;100.00;100323.09;5008698;28;20459;-78
2022/12/14 04:32:10;;;;;;;24.95;9.82;;;;;;;-3.99;100.00;100316.41;5027110;28;20111;-78
2022/12/14 04:34:41;;;;;;;26.83;10.05;;;;;;;-3.96;100.00;100311.44;5005451;28;20037;-78
2022/12/14 04:37:11;;;;;;;25.33;9.80;;;;;;;-3.97;100.00;100302.13;5021662;28;20040;-78
2022/12/14 04:39:59;;;;;;;25.90;10.25;;;;;;;-3.94;100.00;100308.91;5017923;28;20029;-78
2022/12/14 04:42:32;;;;;;;25.65;9.73;;;;;;;-3.95;100.00;100308.06;5007269;28;20121;-78
2022/12/14 04:45:09;;;;;;;24.35;10.40;;;;;;;-3.90;100.00;100308.19;5016187;28;20188;-78
2022/12/14 04:47:42;;;;;;;26.67;9.77;;;;;;;-3.91;100.00;100299.75;5003912;28;20045;-78
2022/12/14 04:50:14;;;;;;;25.50;9.82;;;;;;;-3.91;100.00;100293.81;5013557;28;20393;-78
2022/12/14 04:52:48;;;;;;;24.67;9.60;;;;;;;-3.91;100.00;100297.22;5034047;28;20025;-77
2022/12/14 04:55:21;;;;;;;25.83;9.50;;;;;;;-3.90;100.00;100298.06;5019923;28;20041;-78
2022/12/14 04:57:55;;;;;;;23.05;10.05;;;;;;;-3.90;100.00;100293.88;5017767;28;20372;-78
2022/12/14 05:00:20;;;;;;;28.00;10.73;;;;;;;-3.92;100.00;100292.97;5016045;28;20460;-78
2022/12/14 05:03:04;;;;;;;26.52;9.73;;;;;;;-3.89;100.00;100288.00;5033736;28;20268;-78
2022/12/14 05:05:41;;;;;;;25.38;9.80;;;;;;;-3.89;100.00;100277.00;5023035;28;20067;-78
2022/12/14 05:08:36;;;;;;;25.27;9.38;;;;;;;-3.87;100.00;100282.94;5011142;28;20033;-78
2022/12/14 05:11:13;;;;;;;24.45;9.23;;;;;;;-3.88;100.00;100278.69;5022041;28;20080;-78
2022/12/14 05:13:44;;;;;;;28.35;9.98;;;;;;;-3.90;100.00;100281.22;5015567;28;20053;-78
2022/12/14 05:16:11;;;;;;;26.10;10.15;;;;;;;-3.91;100.00;100278.63;5023898;28;20044;-78
2022/12/14 05:18:36;;;;;;;25.08;10.57;;;;;;;-3.90;100.00;100271.09;5020441;28;20033;-78
2022/12/14 05:21:02;;;;;;;23.40;9.77;;;;;;;-3.90;100.00;100272.75;5024369;28;20025;-78
2022/12/14 05:23:27;;;;;;;26.77;9.52;;;;;;;-3.88;100.00;100273.63;5026239;28;20108;-78
2022/12/14 05:25:52;;;;;;;27.98;10.00;;;;;;;-3.89;100.00;100267.75;5027600;28;20043;-78
2022/12/14 05:28:18;;;;;;;24.00;8.95;;;;;;;-3.88;100.00;100268.56;5014732;28;20033;-78
2022/12/14 05:30:43;;;;;;;23.00;9.73;;;;;;;-3.88;100.00;100271.97;5022972;28;20026;-78
2022/12/14 05:33:19;;;;;;;24.17;9.35;;;;;;;-3.88;100.00;100260.97;5032411;28;20472;-78
2022/12/14 05:35:44;;;;;;;23.33;9.25;;;;;;;-3.86;100.00;100262.72;5029364;28;20037;-78
2022/12/14 05:38:11;;;;;;;23.45;9.95;;;;;;;-3.86;100.00;100267.78;5016303;28;20087;-79
2022/12/14 05:40:37;;;;;;;27.30;10.85;;;;;;;-3.84;100.00;100265.31;5025667;28;20022;-77
2022/12/14 05:43:07;;;;;;;23.77;9.43;;;;;;;-3.83;100.00;100269.56;5014474;28;20178;-78
2022/12/14 05:45:32;;;;;;;28.35;9.45;;;;;;;-3.84;100.00;100265.31;5012041;28;20033;-78
2022/12/14 05:47:57;;;;;;;24.02;9.70;;;;;;;-3.83;100.00;100259.44;5024713;28;20037;-78
2022/12/14 05:50:23;;;;;;;28.42;9.65;;;;;;;-3.83;100.00;100264.50;5020534;28;20029;-78
2022/12/14 05:52:50;;;;;;;23.95;9.70;;;;;;;-3.83;100.00;100261.97;5032134;28;20499;-78
2022/12/14 05:55:16;;;;;;;21.08;9.40;;;;;;;-3.86;100.00;100261.88;5026355;28;20554;-78
2022/12/14 05:57:41;;;;;;;23.08;9.77;;;;;;;-3.83;100.00;100264.50;5014705;28;20058;-78
2022/12/14 06:00:08;;;;;;;26.90;9.32;;;;;;;-3.85;100.00;100263.59;5012408;28;20102;-78
2022/12/14 06:02:33;;;;;;;24.02;9.32;;;;;;;-3.84;100.00;100262.78;5025901;28;20025;-78
2022/12/14 06:04:58;;;;;;;21.27;9.13;;;;;;;-3.83;100.00;100267.88;5029841;28;20063;-78
2022/12/14 06:07:24;;;;;;;26.60;9.70;;;;;;;-3.85;100.00;100261.91;5011411;28;20063;-78
2022/12/14 06:09:49;;;;;;;23.23;9.05;;;;;;;-3.86;100.00;100257.66;5030178;28;20039;-78
2022/12/14 06:12:14;;;;;;;25.42;9.55;;;;;;;-3.89;100.00;100250.03;5032569;28;20036;-78
2022/12/14 06:14:40;;;;;;;22.23;9.15;;;;;;;-3.89;100.00;100256.75;5024422;28;20396;-78
2022/12/14 06:17:05;;;;;;;24.15;9.57;;;;;;;-3.94;100.00;100243.09;5010599;28;20025;-78
2022/12/14 06:19:30;;;;;;;22.83;9.20;;;;;;;-3.92;100.00;100249.06;5014653;28;20025;-78
2022/12/14 06:21:56;;;;;;;23.35;9.00;;;;;;;-3.96;100.00;100245.63;5021402;28;20508;-77
2022/12/14 06:24:21;;;;;;;25.88;9.95;;;;;;;-3.97;100.00;100254.03;5028271;28;20373;-78
2022/12/14 06:26:46;;;;;;;26.30;10.05;;;;;;;-3.99;100.00;100251.47;5018148;28;20018;-78
2022/12/14 06:29:16;;;;;;;23.65;9.57;;;;;;;-4.00;100.00;100249.75;5010333;28;20044;-73
2022/12/14 06:31:42;;;;;;;24.50;9.45;;;;;;;-4.01;100.00;100248.03;5010648;28;20048;-73
2022/12/14 06:34:08;;;;;;;24.13;9.55;;;;;;;-4.00;100.00;100243.81;5014705;28;20025;-74
2022/12/14 06:36:35;;;;;;;25.98;9.95;;;;;;;-4.02;100.00;100248.84;5011905;28;20029;-74
2022/12/14 06:39:03;;;;;;;22.77;9.65;;;;;;;-4.02;100.00;100251.38;5011469;28;20053;-73
2022/12/14 06:41:29;;;;;;;24.70;9.93;;;;;;;-4.03;100.00;100246.28;5012786;28;20416;-73
2022/12/14 06:43:55;;;;;;;25.10;9.93;;;;;;;-4.02;100.00;100250.50;5026065;28;20476;-73
2022/12/14 06:46:22;;;;;;;23.80;9.57;;;;;;;-3.99;100.00;100263.25;5029132;28;20033;-73
2022/12/14 06:48:49;;;;;;;26.13;10.65;;;;;;;-4.00;100.00;100259.84;5022904;28;20021;-74
2022/12/14 06:51:15;;;;;;;26.35;10.32;;;;;;;-3.99;100.00;100259.03;5007789;28;20025;-73
2022/12/14 06:53:40;;;;;;;23.75;9.70;;;;;;;-4.02;100.00;100251.38;5024702;28;20083;-73
2022/12/14 06:56:07;;;;;;;23.63;9.73;;;;;;;-3.98;100.00;100254.84;5025168;28;20049;-73
2022/12/14 06:58:32;;;;;;;27.90;10.48;;;;;;;-4.02;100.00;100250.50;5024024;28;20036;-73
2022/12/14 07:01:25;;;;;;;24.08;9.45;;;;;;;-4.03;100.00;100262.34;5010144;28;20014;-73
2022/12/14 07:03:55;;;;;;;25.63;9.77;;;;;;;-4.04;100.00;100262.28;5022196;28;20128;-74
2022/12/14 07:06:23;;;;;;;25.30;10.35;;;;;;;-4.05;100.00;100263.97;5016018;28;20020;-73
2022/12/14 07:08:51;;;;;;;26.42;10.02;;;;;;;-4.06;100.00;100268.97;5026779;28;20088;-74
2022/12/14 07:11:16;;;;;;;23.17;9.48;;;;;;;-4.04;100.00;100278.31;5031158;28;20068;-73
2022/12/14 07:13:43;;;;;;;20.65;9.25;;;;;;;-4.07;100.00;100272.31;5025215;28;20125;-73
2022/12/14 07:16:13;;;;;;;22.40;9.43;;;;;;;-4.03;100.00;100280.03;5028669;28;20542;-74
2022/12/14 07:18:39;;;;;;;21.30;9.20;;;;;;;-4.02;100.00;100278.34;5008533;28;20036;-73
2022/12/14 07:21:08;;;;;;;23.40;10.27;;;;;;;-4.05;100.00;100273.22;5019707;28;20021;-73
2022/12/14 07:23:36;;;;;;;26.73;10.10;;;;;;;-4.08;100.00;100278.19;5013607;28;20511;-74
2022/12/14 07:26:10;;;;;;;27.08;10.18;;;;;;;-4.12;100.00;100272.22;5019255;28;20032;-73
2022/12/14 07:28:37;;;;;;;25.52;10.38;;;;;;;-4.15;100.00;100273.78;5019479;28;20037;-78
2022/12/14 07:31:04;;;;;;;24.63;10.95;;;;;;;-4.21;100.00;100271.97;5018345;28;20063;-78
2022/12/14 07:33:30;;;;;;;25.70;10.85;;;;;;;-4.26;100.00;100278.56;5027428;28;20068;-78
2022/12/14 07:36:04;;;;;;;35.28;10.65;;;;;;;-4.29;100.00;100275.94;5011629;28;20026;-78
2022/12/14 07:38:29;;;;;;;24.48;10.65;;;;;;;-4.34;100.00;100269.06;5002413;28;20029;-78
2022/12/14 07:41:01;;;;;;;30.08;11.35;;;;;;;-4.35;100.00;100274.94;5008210;28;20443;-78
2022/12/14 07:43:26;;;;;;;28.38;10.63;;;;;;;-4.39;100.00;100274.88;5027034;28;20108;-78
2022/12/14 07:45:51;;;;;;;26.70;11.38;;;;;;;-4.42;100.00;100274.78;5030579;28;20104;-78
2022/12/14 07:48:17;;;;;;;30.75;11.95;;;;;;;-4.43;100.00;100272.19;5008764;28;20830;-78
2022/12/14 07:50:42;;;;;;;30.83;12.65;;;;;;;-4.44;100.00;100278.09;5007456;28;20061;-78
2022/12/14 07:53:07;;;;;;;31.92;12.25;;;;;;;-4.48;100.00;100286.41;5009625;28;20049;-78
2022/12/14 07:55:34;;;;;;;30.33;12.30;;;;;;;-4.47;100.00;100285.59;5030355;28;20029;-78
2022/12/14 07:57:59;;;;;;;28.63;12.02;;;;;;;-4.45;100.00;100289.88;5021600;28;20033;-78
2022/12/14 08:00:24;;;;;;;27.60;12.13;;;;;;;-4.48;100.00;100284.72;5008727;28;20076;-78
2022/12/14 08:02:53;;;;;;;27.00;11.52;;;;;;;-4.47;100.00;100293.16;5004115;28;20400;-78
2022/12/14 08:05:18;;;;;;;29.77;13.18;;;;;;;-4.48;100.00;100297.38;4997286;28;20029;-78
2022/12/14 08:07:44;;;;;;;29.38;11.95;;;;;;;-4.51;100.00;100288.84;5021355;28;20052;-78
2022/12/14 08:10:09;;;;;;;32.13;13.68;;;;;;;-4.52;100.00;100300.66;5011612;28;20276;-78
2022/12/14 08:12:34;;;;;;;28.30;11.63;;;;;;;-4.56;100.00;100291.25;5005825;28;20485;-79
2022/12/14 08:15:00;;;;;;;29.88;12.23;;;;;;;-4.59;100.00;100301.28;5015964;28;20558;-79
2022/12/14 08:17:25;;;;;;;25.20;11.43;;;;;;;-4.64;100.00;100294.38;5021394;28;20104;-78
2022/12/14 08:19:50;;;;;;;26.23;10.95;;;;;;;-4.68;100.00;100305.22;4997625;28;20014;-78
2022/12/14 08:22:16;;;;;;;26.40;12.35;;;;;;;-4.72;100.00;100303.41;5016727;28;20484;-78
2022/12/14 08:24:41;;;;;;;32.70;11.90;;;;;;;-4.75;100.00;100305.84;5026877;28;20031;-79
2022/12/14 08:27:06;;;;;;;32.42;12.38;;;;;;;-4.82;100.00;100299.75;5011651;28;20014;-78
2022/12/14 08:29:32;;;;;;;29.63;12.23;;;;;;;-4.84;100.00;100301.38;5008793;28;20396;-78
2022/12/14 08:31:57;;;;;;;28.73;11.70;;;;;;;-4.88;100.00;100307.16;5022555;28;20112;-78
2022/12/14 08:34:22;;;;;;;23.10;10.23;;;;;;;-4.90;100.00;100312.16;5024731;28;20036;-78
2022/12/14 08:36:48;;;;;;;28.17;11.15;;;;;;;-4.89;100.00;100315.56;5016942;28;20076;-78
2022/12/14 08:39:14;;;;;;;31.17;12.20;;;;;;;-4.91;100.00;100309.59;5025422;28;20611;-79
2022/12/14 08:41:39;;;;;;;26.23;11.05;;;;;;;-4.94;100.00;100315.44;5001757;28;20457;-79
2022/12/14 08:44:05;;;;;;;32.35;12.57;;;;;;;-4.96;100.00;100314.53;5016812;28;20554;-78
2022/12/14 08:46:32;;;;;;;29.65;12.27;;;;;;;-4.93;100.00;100306.19;5008423;28;20030;-78
2022/12/14 08:48:58;;;;;;;28.85;11.73;;;;;;;-4.94;100.00;100305.31;5001872;28;20030;-78
2022/12/14 08:51:25;;;;;;;28.75;11.80;;;;;;;-4.97;100.00;100307.75;5016491;28;20044;-78
2022/12/14 08:53:51;;;;;;;27.83;12.18;;;;;;;-4.99;100.00;100308.53;5029671;28;20594;-79
2022/12/14 08:56:22;;;;;;;31.90;13.10;;;;;;;-4.99;100.00;100313.59;5008586;28;20435;-79
2022/12/14 08:58:48;;;;;;;28.13;11.68;;;;;;;-5.01;100.00;100311.00;5020022;28;20021;-78
2022/12/14 09:01:19;;;;;;;27.02;11.07;;;;;;;-5.03;100.00;100315.16;5018072;28;20026;-78
2022/12/14 09:03:45;;;;;;;32.97;12.10;;;;;;;-5.05;100.00;100313.41;5022537;28;20091;-78
2022/12/14 09:06:22;;;;;;;26.63;11.07;;;;;;;-5.03;100.00;100322.72;5023714;28;20029;-78
2022/12/14 09:08:49;;;;;;;30.10;11.38;;;;;;;-5.01;100.00;100317.72;5011987;28;20450;-78
2022/12/14 09:11:16;;;;;;;27.83;10.73;;;;;;;-5.03;100.00;100320.19;5014506;28;20123;-78
2022/12/14 09:13:42;;;;;;;23.85;10.00;;;;;;;-5.00;100.00;100321.97;5020450;28;20026;-78
2022/12/14 09:16:11;;;;;;;24.75;10.30;;;;;;;-5.01;100.00;100321.13;5020534;28;20021;-78
2022/12/14 09:18:37;;;;;;;23.60;10.18;;;;;;;-5.03;100.00;100317.66;5019079;28;20026;-77
2022/12/14 09:21:03;;;;;;;25.90;10.60;;;;;;;-4.99;100.00;100326.22;5016068;28;20028;-77
2022/12/14 09:23:30;;;;;;;30.23;9.90;;;;;;;-4.98;100.00;100333.00;5019065;28;20026;-77
2022/12/14 09:26:06;;;;;;;21.85;10.18;;;;;;;-4.95;100.00;100338.97;5023848;28;20177;-79
2022/12/14 09:28:33;;;;;;;23.40;10.00;;;;;;;-4.94;100.00;100338.16;5021210;28;20044;-73
2022/12/14 09:31:02;;;;;;;22.30;9.35;;;;;;;-4.93;100.00;100332.31;5033474;28;20045;-73
2022/12/14 09:33:28;;;;;;;24.05;9.75;;;;;;;-4.90;100.00;100334.91;5033271;28;20040;-72
2022/12/14 09:35:59;;;;;;;25.60;9.80;;;;;;;-4.88;100.00;100334.97;5026015;28;20033;-73
2022/12/14 09:38:24;;;;;;;24.25;9.35;;;;;;;-4.86;100.00;100318.19;5013162;28;20112;-73
2022/12/14 09:40:55;;;;;;;24.02;9.63;;;;;;;-4.79;100.00;100323.47;5014182;28;20105;-73
2022/12/14 09:43:38;;;;;;;24.50;10.55;;;;;;;-4.79;100.00;100320.94;5017357;28;20029;-73
2022/12/14 09:46:26;;;;;;;25.30;9.95;;;;;;;-4.67;100.00;100327.16;5016723;28;20037;-73
2022/12/14 09:48:55;;;;;;;23.92;9.40;;;;;;;-4.63;100.00;100327.28;5010221;28;20033;-73
2022/12/14 09:51:24;;;;;;;21.02;9.00;;;;;;;-4.57;100.00;100332.50;5019323;28;20446;-72
2022/12/14 09:53:57;;;;;;;22.85;9.80;;;;;;;-4.52;100.00;100331.00;5032346;28;20026;-73
2022/12/14 09:56:22;;;;;;;24.38;9.20;;;;;;;-4.55;100.00;100315.72;5022862;28;20026;-73
2022/12/14 09:58:53;;;;;;;22.52;9.35;;;;;;;-4.46;100.00;100323.56;5021430;28;20400;-77
2022/12/14 10:01:21;;;;;;;20.55;8.57;;;;;;;-4.44;100.00;100321.94;5024355;28;20022;-78
2022/12/14 10:03:49;;;;;;;22.67;8.98;;;;;;;-4.40;100.00;100317.81;5032390;28;20036;-77
2022/12/14 10:06:35;;;;;;;25.55;9.02;;;;;;;-4.34;100.00;100312.94;5022768;28;20112;-77
2022/12/14 10:09:06;;;;;;;24.40;10.48;;;;;;;-4.28;100.00;100313.09;5029412;28;20132;-77
2022/12/14 10:12:08;;;;;;;20.70;8.77;;;;;;;-4.22;100.00;100308.19;5020861;28;20034;-77
2022/12/14 10:14:49;;;;;;;22.17;9.07;;;;;;;-4.17;100.00;100311.72;5022930;28;20041;-78
2022/12/14 10:17:41;;;;;;;22.13;9.02;;;;;;;-4.11;100.00;100311.88;5016206;28;20025;-78
2022/12/14 10:20:19;;;;;;;23.27;10.38;;;;;;;-4.09;99.90;100317.81;5018848;28;20090;-78
2022/12/14 10:22:48;;;;;;;21.70;9.07;;;;;;;-4.05;100.00;100314.56;5023864;28;20091;-78
2022/12/14 10:25:24;;;;;;;18.15;7.43;;;;;;;-3.99;100.00;100306.28;5024297;28;20033;-77
2022/12/14 10:28:13;;;;;;;23.20;9.20;;;;;;;-3.97;100.00;100313.91;5016818;28;20030;-78
2022/12/14 10:30:41;;;;;;;23.42;8.68;;;;;;;-3.93;99.81;100310.63;5004579;28;20033;-78
2022/12/14 10:33:15;;;;;;;22.25;8.65;;;;;;;-3.88;99.54;100320.03;5006938;28;20025;-77
2022/12/14 10:35:53;;;;;;;20.77;8.93;;;;;;;-3.86;100.00;100317.56;4994710;28;20030;-77
2022/12/14 10:38:42;;;;;;;22.83;8.48;;;;;;;-3.84;99.11;100316.78;5021374;28;20024;-78
2022/12/14 10:41:23;;;;;;;24.00;9.48;;;;;;;-3.77;98.84;100327.94;5000100;28;20026;-78
2022/12/14 10:43:58;;;;;;;21.45;7.78;;;;;;;-3.71;97.79;100331.47;5007922;28;20022;-78
2022/12/14 10:46:50;;;;;;;20.95;9.30;;;;;;;-3.64;97.47;100319.81;5012599;28;20034;-77
2022/12/14 10:49:23;;;;;;;21.05;9.70;;;;;;;-3.59;96.71;100320.78;5003776;28;20125;-78
2022/12/14 10:52:02;;;;;;;21.60;8.95;;;;;;;-3.56;97.36;100318.34;5018245;28;20041;-77
2022/12/14 10:54:46;;;;;;;24.77;9.32;;;;;;;-3.51;98.25;100320.97;5016572;28;20500;-78
2022/12/14 10:57:20;;;;;;;20.77;8.67;;;;;;;-3.49;97.56;100319.34;5031599;28;20021;-78
2022/12/14 10:59:46;;;;;;;18.52;8.48;;;;;;;-3.45;97.47;100311.84;5011227;28;20746;-78
2022/12/14 11:02:19;;;;;;;21.75;9.00;;;;;;;-3.45;97.53;100311.84;5007024;28;20022;-77
2022/12/14 11:04:56;;;;;;;21.73;9.20;;;;;;;-3.43;98.10;100311.88;5008183;28;20057;-77
2022/12/14 11:07:36;;;;;;;22.88;8.88;;;;;;;-3.42;96.55;100306.88;5018595;28;20037;-77
2022/12/14 11:10:22;;;;;;;22.40;9.40;;;;;;;-3.33;97.48;100307.06;5006227;28;20018;-77
2022/12/14 11:13:15;;;;;;;29.20;10.27;;;;;;;-3.36;96.12;100301.09;5031055;28;20472;-78
2022/12/14 11:15:47;;;;;;;32.17;10.82;;;;;;;-3.25;95.32;100304.72;5019025;28;20030;-78
2022/12/14 11:18:15;;;;;;;30.30;10.20;;;;;;;-3.20;95.10;100314.13;5006132;28;20108;-77
2022/12/14 11:20:59;;;;;;;30.15;10.32;;;;;;;-3.10;94.42;100315.19;5018091;28;20033;-78
2022/12/14 11:23:24;;;;;;;28.25;9.60;;;;;;;-3.06;95.74;100316.97;5008125;28;20030;-78
2022/12/14 11:25:54;;;;;;;25.00;10.18;;;;;;;-3.06;96.68;100319.50;5014405;28;20022;-78
2022/12/14 11:28:19;;;;;;;21.98;9.02;;;;;;;-3.05;95.15;100322.91;5013119;28;20030;-78
2022/12/14 11:31:01;;;;;;;26.98;7.65;;;;;;;-3.02;94.52;100330.59;5014090;28;20033;-78
2022/12/14 11:33:51;;;;;;;19.20;8.00;;;;;;;-2.92;94.16;100324.88;5024487;28;20479;-77